sensor_id;sensor_type;location;lat;lon;timestamp;P1;durP1;ratioP1;P2;durP2;ratioP2
19436;SDS011;9854;50.968;4.168;2023-09-07T00:00:35;10.50;;;7.97;;
19436;SDS011;9854;50.968;4.168;2023-09-07T00:03:01;9.45;;;7.57;;
19436;SDS011;9854;50.968;4.168;2023-09-07T00:05:26;9.02;;;7.93;;
19436;SDS011;9854;50.968;4.168;2023-09-07T00:07:52;12.30;;;8.25;;
19436;SDS011;9854;50.968;4.168;2023-09-07T00:10:18;10.27;;;7.75;;
19436;SDS011;9854;50.968;4.168;2023-09-07T00:12:43;9.80;;;7.65;;
19436;SDS011;9854;50.968;4.168;2023-09-07T00:15:09;10.13;;;7.20;;
19436;SDS011;9854;50.968;4.168;2023-09-07T00:17:35;8.95;;;7.35;;
19436;SDS011;9854;50.968;4.168;2023-09-07T00:20:01;10.35;;;8.15;;
19436;SDS011;9854;50.968;4.168;2023-09-07T00:22:35;9.20;;;7.43;;
19436;SDS011;9854;50.968;4.168;2023-09-07T00:25:01;13.60;;;8.10;;
19436;SDS011;9854;50.968;4.168;2023-09-07T00:27:28;13.15;;;7.53;;
19436;SDS011;9854;50.968;4.168;2023-09-07T00:29:54;10.95;;;7.68;;
19436;SDS011;9854;50.968;4.168;2023-09-07T00:32:20;9.15;;;8.25;;
19436;SDS011;9854;50.968;4.168;2023-09-07T00:34:46;12.15;;;7.35;;
19436;SDS011;9854;50.968;4.168;2023-09-07T00:37:11;9.23;;;7.15;;
19436;SDS011;9854;50.968;4.168;2023-09-07T00:39:37;11.15;;;8.00;;
19436;SDS011;9854;50.968;4.168;2023-09-07T00:42:03;8.45;;;7.18;;
19436;SDS011;9854;50.968;4.168;2023-09-07T00:44:29;13.48;;;7.60;;
19436;SDS011;9854;50.968;4.168;2023-09-07T00:46:55;11.05;;;7.38;;
19436;SDS011;9854;50.968;4.168;2023-09-07T00:49:22;9.30;;;7.63;;
19436;SDS011;9854;50.968;4.168;2023-09-07T00:51:49;15.07;;;8.55;;
19436;SDS011;9854;50.968;4.168;2023-09-07T00:54:16;12.40;;;7.97;;
19436;SDS011;9854;50.968;4.168;2023-09-07T00:56:42;10.60;;;7.93;;
19436;SDS011;9854;50.968;4.168;2023-09-07T00:59:07;12.10;;;8.68;;
19436;SDS011;9854;50.968;4.168;2023-09-07T01:01:34;12.75;;;7.80;;
19436;SDS011;9854;50.968;4.168;2023-09-07T01:04:00;8.82;;;7.93;;
19436;SDS011;9854;50.968;4.168;2023-09-07T01:09:21;13.95;;;8.35;;
19436;SDS011;9854;50.968;4.168;2023-09-07T01:11:51;12.32;;;8.80;;
19436;SDS011;9854;50.968;4.168;2023-09-07T01:14:18;16.83;;;8.82;;
19436;SDS011;9854;50.968;4.168;2023-09-07T01:16:43;12.50;;;8.73;;
19436;SDS011;9854;50.968;4.168;2023-09-07T01:19:09;11.82;;;9.23;;
19436;SDS011;9854;50.968;4.168;2023-09-07T01:21:36;13.88;;;9.00;;
19436;SDS011;9854;50.968;4.168;2023-09-07T01:24:04;13.05;;;9.20;;
19436;SDS011;9854;50.968;4.168;2023-09-07T01:26:33;12.00;;;8.38;;
19436;SDS011;9854;50.968;4.168;2023-09-07T01:29:05;13.05;;;8.80;;
19436;SDS011;9854;50.968;4.168;2023-09-07T01:31:35;10.02;;;8.65;;
19436;SDS011;9854;50.968;4.168;2023-09-07T01:34:01;9.23;;;8.32;;
19436;SDS011;9854;50.968;4.168;2023-09-07T01:36:27;10.00;;;8.52;;
19436;SDS011;9854;50.968;4.168;2023-09-07T01:38:54;9.07;;;8.18;;
19436;SDS011;9854;50.968;4.168;2023-09-07T01:41:19;12.70;;;9.10;;
19436;SDS011;9854;50.968;4.168;2023-09-07T01:43:45;13.13;;;8.55;;
19436;SDS011;9854;50.968;4.168;2023-09-07T01:46:10;9.43;;;8.50;;
19436;SDS011;9854;50.968;4.168;2023-09-07T01:48:36;11.88;;;9.07;;
19436;SDS011;9854;50.968;4.168;2023-09-07T01:51:02;11.30;;;9.80;;
19436;SDS011;9854;50.968;4.168;2023-09-07T01:53:27;12.50;;;8.73;;
19436;SDS011;9854;50.968;4.168;2023-09-07T01:55:54;13.07;;;9.70;;
19436;SDS011;9854;50.968;4.168;2023-09-07T01:58:20;10.93;;;9.85;;
19436;SDS011;9854;50.968;4.168;2023-09-07T02:00:46;13.75;;;9.43;;
19436;SDS011;9854;50.968;4.168;2023-09-07T02:03:12;17.63;;;9.40;;
19436;SDS011;9854;50.968;4.168;2023-09-07T02:05:38;10.27;;;9.35;;
19436;SDS011;9854;50.968;4.168;2023-09-07T02:08:04;11.80;;;9.40;;
19436;SDS011;9854;50.968;4.168;2023-09-07T02:10:30;10.50;;;8.30;;
19436;SDS011;9854;50.968;4.168;2023-09-07T02:12:55;12.73;;;8.77;;
19436;SDS011;9854;50.968;4.168;2023-09-07T02:15:23;11.75;;;8.43;;
19436;SDS011;9854;50.968;4.168;2023-09-07T02:17:48;10.32;;;9.30;;
19436;SDS011;9854;50.968;4.168;2023-09-07T02:20:14;10.35;;;9.43;;
19436;SDS011;9854;50.968;4.168;2023-09-07T02:22:40;10.00;;;9.07;;
19436;SDS011;9854;50.968;4.168;2023-09-07T02:25:06;10.65;;;9.13;;
19436;SDS011;9854;50.968;4.168;2023-09-07T02:27:32;12.38;;;9.70;;
19436;SDS011;9854;50.968;4.168;2023-09-07T02:29:59;11.68;;;9.23;;
19436;SDS011;9854;50.968;4.168;2023-09-07T02:32:24;9.82;;;8.93;;
19436;SDS011;9854;50.968;4.168;2023-09-07T02:34:50;12.73;;;9.63;;
19436;SDS011;9854;50.968;4.168;2023-09-07T02:37:16;13.43;;;10.00;;
19436;SDS011;9854;50.968;4.168;2023-09-07T02:39:41;12.50;;;10.18;;
19436;SDS011;9854;50.968;4.168;2023-09-07T02:42:07;10.95;;;9.70;;
19436;SDS011;9854;50.968;4.168;2023-09-07T02:44:33;12.25;;;9.32;;
19436;SDS011;9854;50.968;4.168;2023-09-07T02:46:58;11.25;;;10.05;;
19436;SDS011;9854;50.968;4.168;2023-09-07T02:49:24;12.23;;;9.90;;
19436;SDS011;9854;50.968;4.168;2023-09-07T02:51:50;10.73;;;9.50;;
19436;SDS011;9854;50.968;4.168;2023-09-07T02:54:15;11.52;;;9.43;;
19436;SDS011;9854;50.968;4.168;2023-09-07T02:56:41;15.35;;;10.15;;
19436;SDS011;9854;50.968;4.168;2023-09-07T02:59:06;11.65;;;9.73;;
19436;SDS011;9854;50.968;4.168;2023-09-07T03:01:33;12.40;;;10.13;;
19436;SDS011;9854;50.968;4.168;2023-09-07T03:03:59;10.77;;;9.35;;
19436;SDS011;9854;50.968;4.168;2023-09-07T03:06:24;10.80;;;9.40;;
19436;SDS011;9854;50.968;4.168;2023-09-07T03:08:50;14.60;;;9.82;;
19436;SDS011;9854;50.968;4.168;2023-09-07T03:11:17;11.02;;;9.43;;
19436;SDS011;9854;50.968;4.168;2023-09-07T03:13:42;12.77;;;9.85;;
19436;SDS011;9854;50.968;4.168;2023-09-07T03:16:08;10.30;;;9.40;;
19436;SDS011;9854;50.968;4.168;2023-09-07T03:18:34;12.35;;;9.82;;
19436;SDS011;9854;50.968;4.168;2023-09-07T03:21:01;11.50;;;10.13;;
19436;SDS011;9854;50.968;4.168;2023-09-07T03:23:31;13.20;;;9.65;;
19436;SDS011;9854;50.968;4.168;2023-09-07T03:25:57;11.00;;;9.95;;
19436;SDS011;9854;50.968;4.168;2023-09-07T03:28:23;11.70;;;10.02;;
19436;SDS011;9854;50.968;4.168;2023-09-07T03:30:50;10.35;;;9.27;;
19436;SDS011;9854;50.968;4.168;2023-09-07T03:33:16;11.02;;;9.88;;
19436;SDS011;9854;50.968;4.168;2023-09-07T03:35:42;11.10;;;9.82;;
19436;SDS011;9854;50.968;4.168;2023-09-07T03:38:07;15.50;;;9.68;;
19436;SDS011;9854;50.968;4.168;2023-09-07T03:40:33;10.85;;;9.75;;
19436;SDS011;9854;50.968;4.168;2023-09-07T03:42:59;12.95;;;9.55;;
19436;SDS011;9854;50.968;4.168;2023-09-07T03:45:25;10.95;;;9.90;;
19436;SDS011;9854;50.968;4.168;2023-09-07T03:47:50;12.55;;;9.55;;
19436;SDS011;9854;50.968;4.168;2023-09-07T03:50:16;11.10;;;9.98;;
19436;SDS011;9854;50.968;4.168;2023-09-07T03:52:42;10.27;;;9.32;;
19436;SDS011;9854;50.968;4.168;2023-09-07T03:55:07;12.68;;;10.18;;
19436;SDS011;9854;50.968;4.168;2023-09-07T03:57:33;11.25;;;9.88;;
19436;SDS011;9854;50.968;4.168;2023-09-07T03:59:59;17.02;;;10.10;;
19436;SDS011;9854;50.968;4.168;2023-09-07T04:02:25;11.13;;;10.13;;
19436;SDS011;9854;50.968;4.168;2023-09-07T04:04:51;11.65;;;10.52;;
19436;SDS011;9854;50.968;4.168;2023-09-07T04:07:17;15.27;;;9.73;;
19436;SDS011;9854;50.968;4.168;2023-09-07T04:09:44;9.80;;;8.85;;
19436;SDS011;9854;50.968;4.168;2023-09-07T04:12:10;13.50;;;9.40;;
19436;SDS011;9854;50.968;4.168;2023-09-07T04:14:36;12.70;;;10.18;;
19436;SDS011;9854;50.968;4.168;2023-09-07T04:17:02;17.13;;;9.75;;
19436;SDS011;9854;50.968;4.168;2023-09-07T04:19:28;10.18;;;9.32;;
19436;SDS011;9854;50.968;4.168;2023-09-07T04:21:54;10.88;;;9.70;;
19436;SDS011;9854;50.968;4.168;2023-09-07T04:24:19;11.32;;;9.82;;
19436;SDS011;9854;50.968;4.168;2023-09-07T04:26:45;14.85;;;9.93;;
19436;SDS011;9854;50.968;4.168;2023-09-07T04:29:12;11.35;;;10.20;;
19436;SDS011;9854;50.968;4.168;2023-09-07T04:31:38;11.98;;;10.35;;
19436;SDS011;9854;50.968;4.168;2023-09-07T04:34:04;22.77;;;10.65;;
19436;SDS011;9854;50.968;4.168;2023-09-07T04:36:29;16.02;;;10.55;;
19436;SDS011;9854;50.968;4.168;2023-09-07T04:38:55;14.43;;;10.45;;
19436;SDS011;9854;50.968;4.168;2023-09-07T04:41:21;12.23;;;9.95;;
19436;SDS011;9854;50.968;4.168;2023-09-07T04:43:46;11.73;;;10.50;;
19436;SDS011;9854;50.968;4.168;2023-09-07T04:46:12;13.95;;;10.50;;
19436;SDS011;9854;50.968;4.168;2023-09-07T04:48:39;11.13;;;10.02;;
19436;SDS011;9854;50.968;4.168;2023-09-07T04:51:08;12.98;;;10.75;;
19436;SDS011;9854;50.968;4.168;2023-09-07T04:53:36;10.70;;;9.80;;
19436;SDS011;9854;50.968;4.168;2023-09-07T04:56:04;16.10;;;10.82;;
19436;SDS011;9854;50.968;4.168;2023-09-07T04:58:30;12.55;;;10.93;;
19436;SDS011;9854;50.968;4.168;2023-09-07T05:01:05;13.68;;;11.30;;
19436;SDS011;9854;50.968;4.168;2023-09-07T05:03:36;14.68;;;10.80;;
19436;SDS011;9854;50.968;4.168;2023-09-07T05:06:03;12.45;;;11.25;;
19436;SDS011;9854;50.968;4.168;2023-09-07T05:08:29;17.70;;;10.50;;
19436;SDS011;9854;50.968;4.168;2023-09-07T05:10:55;12.82;;;11.40;;
19436;SDS011;9854;50.968;4.168;2023-09-07T05:13:22;13.82;;;11.35;;
19436;SDS011;9854;50.968;4.168;2023-09-07T05:15:49;13.13;;;10.88;;
19436;SDS011;9854;50.968;4.168;2023-09-07T05:18:16;11.57;;;10.48;;
19436;SDS011;9854;50.968;4.168;2023-09-07T05:20:42;12.30;;;10.45;;
19436;SDS011;9854;50.968;4.168;2023-09-07T05:23:13;12.02;;;10.57;;
19436;SDS011;9854;50.968;4.168;2023-09-07T05:25:47;13.30;;;11.63;;
19436;SDS011;9854;50.968;4.168;2023-09-07T05:28:20;16.25;;;11.18;;
19436;SDS011;9854;50.968;4.168;2023-09-07T05:30:46;14.75;;;10.68;;
19436;SDS011;9854;50.968;4.168;2023-09-07T05:33:13;17.00;;;11.27;;
19436;SDS011;9854;50.968;4.168;2023-09-07T05:35:39;17.25;;;11.05;;
19436;SDS011;9854;50.968;4.168;2023-09-07T05:38:06;14.13;;;10.27;;
19436;SDS011;9854;50.968;4.168;2023-09-07T05:40:33;15.95;;;10.02;;
19436;SDS011;9854;50.968;4.168;2023-09-07T05:43:03;13.48;;;10.85;;
19436;SDS011;9854;50.968;4.168;2023-09-07T05:45:34;14.02;;;10.70;;
19436;SDS011;9854;50.968;4.168;2023-09-07T05:48:09;13.18;;;10.70;;
19436;SDS011;9854;50.968;4.168;2023-09-07T05:50:35;17.23;;;10.65;;
19436;SDS011;9854;50.968;4.168;2023-09-07T05:53:02;15.80;;;10.85;;
19436;SDS011;9854;50.968;4.168;2023-09-07T05:55:28;17.70;;;11.32;;
19436;SDS011;9854;50.968;4.168;2023-09-07T05:57:55;15.10;;;10.77;;
19436;SDS011;9854;50.968;4.168;2023-09-07T06:00:21;20.10;;;11.10;;
19436;SDS011;9854;50.968;4.168;2023-09-07T06:02:47;17.70;;;10.63;;
19436;SDS011;9854;50.968;4.168;2023-09-07T06:05:13;11.40;;;10.13;;
19436;SDS011;9854;50.968;4.168;2023-09-07T06:07:39;14.80;;;11.52;;
19436;SDS011;9854;50.968;4.168;2023-09-07T06:10:04;23.35;;;12.07;;
19436;SDS011;9854;50.968;4.168;2023-09-07T06:12:31;17.23;;;11.85;;
19436;SDS011;9854;50.968;4.168;2023-09-07T06:14:57;17.92;;;11.95;;
19436;SDS011;9854;50.968;4.168;2023-09-07T06:17:22;18.40;;;12.05;;
19436;SDS011;9854;50.968;4.168;2023-09-07T06:19:48;19.00;;;12.32;;
19436;SDS011;9854;50.968;4.168;2023-09-07T06:22:14;19.27;;;12.18;;
19436;SDS011;9854;50.968;4.168;2023-09-07T06:24:40;24.25;;;12.45;;
19436;SDS011;9854;50.968;4.168;2023-09-07T06:27:05;26.88;;;12.32;;
19436;SDS011;9854;50.968;4.168;2023-09-07T06:29:31;19.63;;;12.27;;
19436;SDS011;9854;50.968;4.168;2023-09-07T06:31:57;23.30;;;11.52;;
19436;SDS011;9854;50.968;4.168;2023-09-07T06:34:23;18.85;;;11.32;;
19436;SDS011;9854;50.968;4.168;2023-09-07T06:36:50;21.48;;;12.15;;
19436;SDS011;9854;50.968;4.168;2023-09-07T06:39:15;21.75;;;12.05;;
19436;SDS011;9854;50.968;4.168;2023-09-07T06:41:41;20.65;;;12.95;;
19436;SDS011;9854;50.968;4.168;2023-09-07T06:44:07;25.42;;;12.32;;
19436;SDS011;9854;50.968;4.168;2023-09-07T06:46:32;20.17;;;12.20;;
19436;SDS011;9854;50.968;4.168;2023-09-07T06:48:58;19.35;;;13.18;;
19436;SDS011;9854;50.968;4.168;2023-09-07T06:51:24;13.80;;;12.15;;
19436;SDS011;9854;50.968;4.168;2023-09-07T06:53:49;16.55;;;11.88;;
19436;SDS011;9854;50.968;4.168;2023-09-07T06:56:15;22.88;;;12.88;;
19436;SDS011;9854;50.968;4.168;2023-09-07T06:58:41;18.08;;;13.02;;
19436;SDS011;9854;50.968;4.168;2023-09-07T07:01:06;18.80;;;12.65;;
19436;SDS011;9854;50.968;4.168;2023-09-07T07:03:32;18.45;;;12.52;;
19436;SDS011;9854;50.968;4.168;2023-09-07T07:05:59;17.85;;;12.10;;
19436;SDS011;9854;50.968;4.168;2023-09-07T07:08:25;27.90;;;12.77;;
19436;SDS011;9854;50.968;4.168;2023-09-07T07:10:51;18.02;;;11.60;;
19436;SDS011;9854;50.968;4.168;2023-09-07T07:13:18;16.70;;;11.02;;
19436;SDS011;9854;50.968;4.168;2023-09-07T07:15:43;20.38;;;10.98;;
19436;SDS011;9854;50.968;4.168;2023-09-07T07:18:09;15.63;;;11.60;;
19436;SDS011;9854;50.968;4.168;2023-09-07T07:20:35;20.98;;;12.50;;
19436;SDS011;9854;50.968;4.168;2023-09-07T07:23:02;14.35;;;10.52;;
19436;SDS011;9854;50.968;4.168;2023-09-07T07:25:27;19.83;;;11.43;;
19436;SDS011;9854;50.968;4.168;2023-09-07T07:27:53;15.73;;;11.27;;
19436;SDS011;9854;50.968;4.168;2023-09-07T07:30:18;18.98;;;10.98;;
19436;SDS011;9854;50.968;4.168;2023-09-07T07:32:44;17.92;;;9.95;;
19436;SDS011;9854;50.968;4.168;2023-09-07T07:35:10;15.23;;;10.05;;
19436;SDS011;9854;50.968;4.168;2023-09-07T07:37:36;12.68;;;10.23;;
19436;SDS011;9854;50.968;4.168;2023-09-07T07:40:01;15.48;;;10.45;;
19436;SDS011;9854;50.968;4.168;2023-09-07T07:42:27;14.93;;;9.90;;
19436;SDS011;9854;50.968;4.168;2023-09-07T07:44:53;10.82;;;9.73;;
19436;SDS011;9854;50.968;4.168;2023-09-07T07:47:18;14.88;;;10.10;;
19436;SDS011;9854;50.968;4.168;2023-09-07T07:49:44;14.20;;;9.70;;
19436;SDS011;9854;50.968;4.168;2023-09-07T07:52:10;23.98;;;9.38;;
19436;SDS011;9854;50.968;4.168;2023-09-07T07:54:36;15.23;;;9.32;;
19436;SDS011;9854;50.968;4.168;2023-09-07T07:57:02;12.32;;;8.45;;
19436;SDS011;9854;50.968;4.168;2023-09-07T07:59:27;15.13;;;8.80;;
19436;SDS011;9854;50.968;4.168;2023-09-07T08:01:53;18.17;;;8.50;;
19436;SDS011;9854;50.968;4.168;2023-09-07T08:04:19;10.52;;;8.18;;
19436;SDS011;9854;50.968;4.168;2023-09-07T08:06:45;10.75;;;7.55;;
19436;SDS011;9854;50.968;4.168;2023-09-07T08:09:10;15.25;;;8.75;;
19436;SDS011;9854;50.968;4.168;2023-09-07T08:11:36;8.38;;;7.43;;
19436;SDS011;9854;50.968;4.168;2023-09-07T08:14:03;9.93;;;6.95;;
19436;SDS011;9854;50.968;4.168;2023-09-07T08:16:29;19.38;;;7.93;;
19436;SDS011;9854;50.968;4.168;2023-09-07T08:18:54;12.25;;;6.88;;
19436;SDS011;9854;50.968;4.168;2023-09-07T08:21:20;7.47;;;6.65;;
19436;SDS011;9854;50.968;4.168;2023-09-07T08:23:45;9.20;;;7.18;;
19436;SDS011;9854;50.968;4.168;2023-09-07T08:26:11;9.63;;;7.20;;
19436;SDS011;9854;50.968;4.168;2023-09-07T08:28:39;9.93;;;6.82;;
19436;SDS011;9854;50.968;4.168;2023-09-07T08:31:05;12.13;;;7.10;;
19436;SDS011;9854;50.968;4.168;2023-09-07T08:33:31;8.68;;;6.50;;
19436;SDS011;9854;50.968;4.168;2023-09-07T08:36:04;10.52;;;6.50;;
19436;SDS011;9854;50.968;4.168;2023-09-07T08:38:31;9.52;;;6.28;;
19436;SDS011;9854;50.968;4.168;2023-09-07T08:41:00;14.40;;;6.78;;
19436;SDS011;9854;50.968;4.168;2023-09-07T08:43:30;14.85;;;6.63;;
19436;SDS011;9854;50.968;4.168;2023-09-07T08:46:18;9.48;;;5.68;;
19436;SDS011;9854;50.968;4.168;2023-09-07T08:48:47;8.10;;;5.93;;
19436;SDS011;9854;50.968;4.168;2023-09-07T08:51:17;10.30;;;6.18;;
19436;SDS011;9854;50.968;4.168;2023-09-07T08:53:44;11.00;;;6.30;;
19436;SDS011;9854;50.968;4.168;2023-09-07T08:56:14;10.05;;;6.32;;
19436;SDS011;9854;50.968;4.168;2023-09-07T08:58:41;8.15;;;5.45;;
19436;SDS011;9854;50.968;4.168;2023-09-07T09:01:07;14.68;;;6.60;;
19436;SDS011;9854;50.968;4.168;2023-09-07T09:03:34;11.68;;;5.68;;
19436;SDS011;9854;50.968;4.168;2023-09-07T09:06:00;9.85;;;6.65;;
19436;SDS011;9854;50.968;4.168;2023-09-07T09:08:27;11.05;;;6.97;;
19436;SDS011;9854;50.968;4.168;2023-09-07T09:10:59;10.60;;;5.78;;
19436;SDS011;9854;50.968;4.168;2023-09-07T09:13:31;12.05;;;5.55;;
19436;SDS011;9854;50.968;4.168;2023-09-07T09:16:00;9.88;;;5.38;;
19436;SDS011;9854;50.968;4.168;2023-09-07T09:18:26;10.45;;;5.75;;
19436;SDS011;9854;50.968;4.168;2023-09-07T09:20:54;12.63;;;4.90;;
19436;SDS011;9854;50.968;4.168;2023-09-07T09:23:20;16.38;;;5.85;;
19436;SDS011;9854;50.968;4.168;2023-09-07T09:25:47;11.57;;;5.50;;
19436;SDS011;9854;50.968;4.168;2023-09-07T09:28:14;8.40;;;5.03;;
19436;SDS011;9854;50.968;4.168;2023-09-07T09:30:40;10.25;;;4.47;;
19436;SDS011;9854;50.968;4.168;2023-09-07T09:33:10;10.75;;;4.38;;
19436;SDS011;9854;50.968;4.168;2023-09-07T09:35:36;9.00;;;4.38;;
19436;SDS011;9854;50.968;4.168;2023-09-07T09:38:03;7.25;;;3.88;;
19436;SDS011;9854;50.968;4.168;2023-09-07T09:40:32;11.38;;;3.65;;
19436;SDS011;9854;50.968;4.168;2023-09-07T09:42:59;10.05;;;4.40;;
19436;SDS011;9854;50.968;4.168;2023-09-07T09:45:27;13.70;;;3.97;;
19436;SDS011;9854;50.968;4.168;2023-09-07T09:47:54;3.78;;;3.45;;
19436;SDS011;9854;50.968;4.168;2023-09-07T09:50:24;8.85;;;4.10;;
19436;SDS011;9854;50.968;4.168;2023-09-07T09:52:51;9.60;;;4.00;;
19436;SDS011;9854;50.968;4.168;2023-09-07T09:55:20;14.15;;;3.35;;
19436;SDS011;9854;50.968;4.168;2023-09-07T09:57:47;7.15;;;4.38;;
19436;SDS011;9854;50.968;4.168;2023-09-07T10:00:15;7.65;;;3.67;;
19436;SDS011;9854;50.968;4.168;2023-09-07T10:02:50;6.28;;;3.45;;
19436;SDS011;9854;50.968;4.168;2023-09-07T10:05:20;5.82;;;3.53;;
19436;SDS011;9854;50.968;4.168;2023-09-07T10:07:48;8.15;;;3.38;;
19436;SDS011;9854;50.968;4.168;2023-09-07T10:10:18;6.93;;;4.00;;
19436;SDS011;9854;50.968;4.168;2023-09-07T10:12:45;6.78;;;3.90;;
19436;SDS011;9854;50.968;4.168;2023-09-07T10:15:21;11.25;;;3.70;;
19436;SDS011;9854;50.968;4.168;2023-09-07T10:17:47;12.20;;;3.88;;
19436;SDS011;9854;50.968;4.168;2023-09-07T10:20:15;5.60;;;3.17;;
19436;SDS011;9854;50.968;4.168;2023-09-07T10:22:42;5.82;;;3.75;;
19436;SDS011;9854;50.968;4.168;2023-09-07T10:25:22;6.30;;;3.10;;
19436;SDS011;9854;50.968;4.168;2023-09-07T10:27:48;8.10;;;3.38;;
19436;SDS011;9854;50.968;4.168;2023-09-07T10:30:14;7.60;;;3.30;;
19436;SDS011;9854;50.968;4.168;2023-09-07T10:32:47;3.35;;;2.72;;
19436;SDS011;9854;50.968;4.168;2023-09-07T10:35:16;7.55;;;3.20;;
19436;SDS011;9854;50.968;4.168;2023-09-07T10:37:44;7.63;;;3.35;;
19436;SDS011;9854;50.968;4.168;2023-09-07T10:40:22;7.18;;;2.85;;
19436;SDS011;9854;50.968;4.168;2023-09-07T10:42:47;7.68;;;3.40;;
19436;SDS011;9854;50.968;4.168;2023-09-07T10:45:14;4.40;;;2.97;;
19436;SDS011;9854;50.968;4.168;2023-09-07T10:47:45;3.47;;;2.97;;
19436;SDS011;9854;50.968;4.168;2023-09-07T10:50:14;4.10;;;3.20;;
19436;SDS011;9854;50.968;4.168;2023-09-07T10:52:40;5.00;;;2.55;;
19436;SDS011;9854;50.968;4.168;2023-09-07T10:55:07;6.32;;;2.95;;
19436;SDS011;9854;50.968;4.168;2023-09-07T10:57:43;8.90;;;3.08;;
19436;SDS011;9854;50.968;4.168;2023-09-07T11:00:10;7.90;;;3.30;;
19436;SDS011;9854;50.968;4.168;2023-09-07T11:02:40;10.05;;;3.05;;
19436;SDS011;9854;50.968;4.168;2023-09-07T11:05:08;5.53;;;3.10;;
19436;SDS011;9854;50.968;4.168;2023-09-07T11:07:35;7.22;;;3.03;;
19436;SDS011;9854;50.968;4.168;2023-09-07T11:10:05;4.30;;;3.10;;
19436;SDS011;9854;50.968;4.168;2023-09-07T11:12:36;8.30;;;3.40;;
19436;SDS011;9854;50.968;4.168;2023-09-07T11:15:03;8.27;;;3.40;;
19436;SDS011;9854;50.968;4.168;2023-09-07T11:17:29;10.20;;;3.25;;
19436;SDS011;9854;50.968;4.168;2023-09-07T11:19:55;7.47;;;3.58;;
19436;SDS011;9854;50.968;4.168;2023-09-07T11:22:21;9.70;;;3.72;;
19436;SDS011;9854;50.968;4.168;2023-09-07T11:24:47;12.45;;;2.90;;
19436;SDS011;9854;50.968;4.168;2023-09-07T11:27:13;4.03;;;2.85;;
19436;SDS011;9854;50.968;4.168;2023-09-07T11:29:41;7.07;;;3.33;;
19436;SDS011;9854;50.968;4.168;2023-09-07T11:32:07;4.50;;;3.08;;
19436;SDS011;9854;50.968;4.168;2023-09-07T11:34:34;3.13;;;2.83;;
19436;SDS011;9854;50.968;4.168;2023-09-07T11:37:02;3.65;;;2.80;;
19436;SDS011;9854;50.968;4.168;2023-09-07T11:39:29;5.57;;;3.35;;
19436;SDS011;9854;50.968;4.168;2023-09-07T11:41:55;4.53;;;3.50;;
19436;SDS011;9854;50.968;4.168;2023-09-07T11:44:20;5.38;;;2.97;;
19436;SDS011;9854;50.968;4.168;2023-09-07T11:46:46;4.70;;;2.95;;
19436;SDS011;9854;50.968;4.168;2023-09-07T11:49:12;5.18;;;3.17;;
19436;SDS011;9854;50.968;4.168;2023-09-07T11:51:38;8.32;;;3.00;;
19436;SDS011;9854;50.968;4.168;2023-09-07T11:54:04;8.23;;;3.17;;
19436;SDS011;9854;50.968;4.168;2023-09-07T11:56:30;3.55;;;2.95;;
19436;SDS011;9854;50.968;4.168;2023-09-07T11:58:56;8.30;;;3.08;;
19436;SDS011;9854;50.968;4.168;2023-09-07T12:01:22;4.60;;;2.75;;
19436;SDS011;9854;50.968;4.168;2023-09-07T12:03:47;7.07;;;2.72;;
19436;SDS011;9854;50.968;4.168;2023-09-07T12:06:13;4.80;;;2.88;;
19436;SDS011;9854;50.968;4.168;2023-09-07T12:08:41;7.38;;;3.03;;
19436;SDS011;9854;50.968;4.168;2023-09-07T12:11:08;7.95;;;3.00;;
19436;SDS011;9854;50.968;4.168;2023-09-07T12:13:36;8.93;;;2.83;;
19436;SDS011;9854;50.968;4.168;2023-09-07T12:16:02;3.72;;;2.88;;
19436;SDS011;9854;50.968;4.168;2023-09-07T12:18:27;5.07;;;2.78;;
19436;SDS011;9854;50.968;4.168;2023-09-07T12:20:53;5.78;;;3.30;;
19436;SDS011;9854;50.968;4.168;2023-09-07T12:23:19;12.02;;;3.00;;
19436;SDS011;9854;50.968;4.168;2023-09-07T12:25:44;3.92;;;2.75;;
19436;SDS011;9854;50.968;4.168;2023-09-07T12:28:15;6.80;;;2.58;;
19436;SDS011;9854;50.968;4.168;2023-09-07T12:30:41;5.28;;;2.63;;
19436;SDS011;9854;50.968;4.168;2023-09-07T12:33:09;3.80;;;2.78;;
19436;SDS011;9854;50.968;4.168;2023-09-07T12:35:35;5.15;;;2.78;;
19436;SDS011;9854;50.968;4.168;2023-09-07T12:38:00;9.77;;;2.40;;
19436;SDS011;9854;50.968;4.168;2023-09-07T12:40:26;5.68;;;2.42;;
19436;SDS011;9854;50.968;4.168;2023-09-07T12:42:52;3.95;;;2.22;;
19436;SDS011;9854;50.968;4.168;2023-09-07T12:45:18;6.05;;;2.55;;
19436;SDS011;9854;50.968;4.168;2023-09-07T12:47:43;2.83;;;2.50;;
19436;SDS011;9854;50.968;4.168;2023-09-07T12:50:09;3.63;;;2.65;;
19436;SDS011;9854;50.968;4.168;2023-09-07T12:52:35;4.72;;;2.17;;
19436;SDS011;9854;50.968;4.168;2023-09-07T12:55:04;5.88;;;2.30;;
19436;SDS011;9854;50.968;4.168;2023-09-07T12:57:31;4.70;;;2.60;;
19436;SDS011;9854;50.968;4.168;2023-09-07T12:59:56;9.80;;;2.63;;
19436;SDS011;9854;50.968;4.168;2023-09-07T13:02:22;7.85;;;2.33;;
19436;SDS011;9854;50.968;4.168;2023-09-07T13:04:48;5.75;;;2.38;;
19436;SDS011;9854;50.968;4.168;2023-09-07T13:07:13;5.05;;;2.30;;
19436;SDS011;9854;50.968;4.168;2023-09-07T13:09:39;9.18;;;2.30;;
19436;SDS011;9854;50.968;4.168;2023-09-07T13:12:10;3.70;;;2.72;;
19436;SDS011;9854;50.968;4.168;2023-09-07T13:14:35;2.78;;;2.38;;
19436;SDS011;9854;50.968;4.168;2023-09-07T13:17:01;5.00;;;2.40;;
19436;SDS011;9854;50.968;4.168;2023-09-07T13:19:26;4.55;;;2.40;;
19436;SDS011;9854;50.968;4.168;2023-09-07T13:21:54;7.15;;;2.22;;
19436;SDS011;9854;50.968;4.168;2023-09-07T13:24:19;6.25;;;2.40;;
19436;SDS011;9854;50.968;4.168;2023-09-07T13:26:47;3.95;;;2.63;;
19436;SDS011;9854;50.968;4.168;2023-09-07T13:29:13;9.65;;;2.78;;
19436;SDS011;9854;50.968;4.168;2023-09-07T13:31:39;3.15;;;2.47;;
19436;SDS011;9854;50.968;4.168;2023-09-07T13:34:04;11.75;;;2.67;;
19436;SDS011;9854;50.968;4.168;2023-09-07T13:36:30;2.40;;;2.20;;
19436;SDS011;9854;50.968;4.168;2023-09-07T13:38:56;7.68;;;2.53;;
19436;SDS011;9854;50.968;4.168;2023-09-07T13:41:22;3.53;;;2.55;;
19436;SDS011;9854;50.968;4.168;2023-09-07T13:43:48;4.97;;;2.60;;
19436;SDS011;9854;50.968;4.168;2023-09-07T13:46:13;6.28;;;2.40;;
19436;SDS011;9854;50.968;4.168;2023-09-07T13:48:39;8.90;;;2.40;;
19436;SDS011;9854;50.968;4.168;2023-09-07T13:51:05;9.43;;;2.30;;
19436;SDS011;9854;50.968;4.168;2023-09-07T13:53:31;6.88;;;2.40;;
19436;SDS011;9854;50.968;4.168;2023-09-07T13:55:56;5.45;;;2.50;;
19436;SDS011;9854;50.968;4.168;2023-09-07T13:58:22;3.38;;;2.40;;
19436;SDS011;9854;50.968;4.168;2023-09-07T14:00:48;7.22;;;2.47;;
19436;SDS011;9854;50.968;4.168;2023-09-07T14:03:15;4.22;;;2.47;;
19436;SDS011;9854;50.968;4.168;2023-09-07T14:05:41;6.38;;;2.95;;
19436;SDS011;9854;50.968;4.168;2023-09-07T14:08:07;7.75;;;2.22;;
19436;SDS011;9854;50.968;4.168;2023-09-07T14:10:32;6.63;;;2.40;;
19436;SDS011;9854;50.968;4.168;2023-09-07T14:12:58;3.97;;;2.70;;
19436;SDS011;9854;50.968;4.168;2023-09-07T14:15:24;3.30;;;2.42;;
19436;SDS011;9854;50.968;4.168;2023-09-07T14:17:49;7.55;;;2.70;;
19436;SDS011;9854;50.968;4.168;2023-09-07T14:20:15;6.85;;;2.50;;
19436;SDS011;9854;50.968;4.168;2023-09-07T14:22:41;7.43;;;2.60;;
19436;SDS011;9854;50.968;4.168;2023-09-07T14:25:07;4.22;;;2.40;;
19436;SDS011;9854;50.968;4.168;2023-09-07T14:27:33;7.55;;;2.72;;
19436;SDS011;9854;50.968;4.168;2023-09-07T14:29:58;5.70;;;2.38;;
19436;SDS011;9854;50.968;4.168;2023-09-07T14:32:24;6.50;;;2.50;;
19436;SDS011;9854;50.968;4.168;2023-09-07T14:34:50;3.40;;;2.50;;
19436;SDS011;9854;50.968;4.168;2023-09-07T14:37:15;3.20;;;2.90;;
19436;SDS011;9854;50.968;4.168;2023-09-07T14:39:41;5.53;;;2.42;;
19436;SDS011;9854;50.968;4.168;2023-09-07T14:42:12;10.05;;;2.60;;
19436;SDS011;9854;50.968;4.168;2023-09-07T14:44:41;3.83;;;2.92;;
19436;SDS011;9854;50.968;4.168;2023-09-07T14:47:07;3.40;;;2.67;;
19436;SDS011;9854;50.968;4.168;2023-09-07T14:49:33;7.40;;;2.63;;